sensor_id;sensor_type;location;lat;lon;timestamp;temperature;humidity
40848;DHT22;26570;50.962;5.340;2023-05-10T00:08:20;15.00;99.90
40848;DHT22;26570;50.962;5.340;2023-05-10T00:19:40;14.80;99.90
40848;DHT22;26570;50.962;5.340;2023-05-10T00:27:07;14.90;99.90
40848;DHT22;26570;50.962;5.340;2023-05-10T00:30:38;14.90;99.90
40848;DHT22;26570;50.962;5.340;2023-05-10T00:33:49;14.80;99.90
40848;DHT22;26570;50.962;5.340;2023-05-10T00:37:21;14.70;99.90
40848;DHT22;26570;50.962;5.340;2023-05-10T00:40:50;14.70;99.90
40848;DHT22;26570;50.962;5.340;2023-05-10T00:44:03;14.70;99.90
40848;DHT22;26570;50.962;5.340;2023-05-10T00:47:25;14.70;99.90
40848;DHT22;26570;50.962;5.340;2023-05-10T00:55:16;14.80;99.90
40848;DHT22;26570;50.962;5.340;2023-05-10T00:59:05;14.80;99.90
40848;DHT22;26570;50.962;5.340;2023-05-10T01:07:09;14.50;99.90
40848;DHT22;26570;50.962;5.340;2023-05-10T01:10:39;14.50;99.90
40848;DHT22;26570;50.962;5.340;2023-05-10T01:17:53;14.70;99.90
40848;DHT22;26570;50.962;5.340;2023-05-10T01:21:38;14.60;99.90
40848;DHT22;26570;50.962;5.340;2023-05-10T01:36:13;14.40;99.90
40848;DHT22;26570;50.962;5.340;2023-05-10T01:55:46;14.20;99.90
40848;DHT22;26570;50.962;5.340;2023-05-10T01:59:22;14.20;99.90
40848;DHT22;26570;50.962;5.340;2023-05-10T02:06:49;14.40;99.90
40848;DHT22;26570;50.962;5.340;2023-05-10T02:10:11;14.40;99.90
40848;DHT22;26570;50.962;5.340;2023-05-10T02:13:52;14.30;99.90
40848;DHT22;26570;50.962;5.340;2023-05-10T02:17:45;14.60;99.90
40848;DHT22;26570;50.962;5.340;2023-05-10T02:24:55;14.50;99.90
40848;DHT22;26570;50.962;5.340;2023-05-10T02:28:29;14.50;99.90
40848;DHT22;26570;50.962;5.340;2023-05-10T02:31:54;14.50;99.90
40848;DHT22;26570;50.962;5.340;2023-05-10T02:35:36;14.30;99.90
40848;DHT22;26570;50.962;5.340;2023-05-10T02:38:58;14.30;99.90
40848;DHT22;26570;50.962;5.340;2023-05-10T02:46:30;14.40;99.90
40848;DHT22;26570;50.962;5.340;2023-05-10T02:54:45;14.30;99.90
40848;DHT22;26570;50.962;5.340;2023-05-10T03:02:15;14.50;99.90
40848;DHT22;26570;50.962;5.340;2023-05-10T03:21:25;14.40;99.90
40848;DHT22;26570;50.962;5.340;2023-05-10T03:29:18;14.40;99.90
40848;DHT22;26570;50.962;5.340;2023-05-10T03:33:07;14.30;99.90
40848;DHT22;26570;50.962;5.340;2023-05-10T03:36:15;14.30;99.90
40848;DHT22;26570;50.962;5.340;2023-05-10T03:40:01;14.30;99.90
40848;DHT22;26570;50.962;5.340;2023-05-10T03:54:41;14.50;99.90
40848;DHT22;26570;50.962;5.340;2023-05-10T03:58:33;14.40;99.90
40848;DHT22;26570;50.962;5.340;2023-05-10T04:09:45;14.50;99.90
40848;DHT22;26570;50.962;5.340;2023-05-10T04:17:31;14.50;99.90
40848;DHT22;26570;50.962;5.340;2023-05-10T04:20:49;14.20;99.90
40848;DHT22;26570;50.962;5.340;2023-05-10T04:24:15;14.40;99.90
40848;DHT22;26570;50.962;5.340;2023-05-10T04:28:30;14.40;99.90
40848;DHT22;26570;50.962;5.340;2023-05-10T04:32:22;14.30;99.90
40848;DHT22;26570;50.962;5.340;2023-05-10T04:36:17;14.40;99.90
40848;DHT22;26570;50.962;5.340;2023-05-10T04:39:29;14.20;99.90
40848;DHT22;26570;50.962;5.340;2023-05-10T04:46:55;14.50;99.90
40848;DHT22;26570;50.962;5.340;2023-05-10T04:50:16;14.40;99.90
40848;DHT22;26570;50.962;5.340;2023-05-10T04:53:46;14.10;99.90
40848;DHT22;26570;50.962;5.340;2023-05-10T05:01:19;14.50;99.90
40848;DHT22;26570;50.962;5.340;2023-05-10T05:04:48;14.20;99.90
40848;DHT22;26570;50.962;5.340;2023-05-10T05:08:41;14.10;99.90
40848;DHT22;26570;50.962;5.340;2023-05-10T05:12:02;14.10;99.90
40848;DHT22;26570;50.962;5.340;2023-05-10T05:16:21;14.20;99.90
40848;DHT22;26570;50.962;5.340;2023-05-10T05:30:55;13.70;99.90
40848;DHT22;26570;50.962;5.340;2023-05-10T05:34:42;13.80;99.90
40848;DHT22;26570;50.962;5.340;2023-05-10T05:38:14;13.80;99.90
40848;DHT22;26570;50.962;5.340;2023-05-10T05:41:04;13.90;99.90
40848;DHT22;26570;50.962;5.340;2023-05-10T05:49:04;13.90;99.90
40848;DHT22;26570;50.962;5.340;2023-05-10T05:52:03;14.00;99.90
40848;DHT22;26570;50.962;5.340;2023-05-10T05:55:50;14.10;99.90
40848;DHT22;26570;50.962;5.340;2023-05-10T05:59:00;14.30;99.90
40848;DHT22;26570;50.962;5.340;2023-05-10T06:01:48;14.20;99.90
40848;DHT22;26570;50.962;5.340;2023-05-10T06:05:14;14.40;99.90
40848;DHT22;26570;50.962;5.340;2023-05-10T06:08:56;14.80;99.90
40848;DHT22;26570;50.962;5.340;2023-05-10T06:12:30;14.50;99.90
40848;DHT22;26570;50.962;5.340;2023-05-10T06:15:49;14.70;99.90
40848;DHT22;26570;50.962;5.340;2023-05-10T06:18:51;14.60;99.90
40848;DHT22;26570;50.962;5.340;2023-05-10T06:22:10;14.50;99.90
40848;DHT22;26570;50.962;5.340;2023-05-10T06:25:57;14.70;99.90
40848;DHT22;26570;50.962;5.340;2023-05-10T06:29:12;14.90;99.90
40848;DHT22;26570;50.962;5.340;2023-05-10T06:32:21;14.80;99.90
40848;DHT22;26570;50.962;5.340;2023-05-10T06:35:29;14.60;99.90
40848;DHT22;26570;50.962;5.340;2023-05-10T06:38:54;14.80;99.90
40848;DHT22;26570;50.962;5.340;2023-05-10T06:53:14;14.90;99.90
40848;DHT22;26570;50.962;5.340;2023-05-10T06:56:37;14.80;99.90
40848;DHT22;26570;50.962;5.340;2023-05-10T07:00:12;14.70;99.90
40848;DHT22;26570;50.962;5.340;2023-05-10T07:03:36;14.50;99.90
40848;DHT22;26570;50.962;5.340;2023-05-10T07:06:54;14.50;99.90
40848;DHT22;26570;50.962;5.340;2023-05-10T07:10:22;14.60;99.90
40848;DHT22;26570;50.962;5.340;2023-05-10T07:13:48;14.70;99.90
40848;DHT22;26570;50.962;5.340;2023-05-10T07:20:32;14.80;99.90
40848;DHT22;26570;50.962;5.340;2023-05-10T07:23:32;14.90;99.90
40848;DHT22;26570;50.962;5.340;2023-05-10T07:26:55;15.30;99.90
40848;DHT22;26570;50.962;5.340;2023-05-10T07:30:33;15.00;99.90
40848;DHT22;26570;50.962;5.340;2023-05-10T07:34:24;15.20;99.90
40848;DHT22;26570;50.962;5.340;2023-05-10T07:38:06;15.00;99.90
40848;DHT22;26570;50.962;5.340;2023-05-10T07:41:24;15.10;99.90
40848;DHT22;26570;50.962;5.340;2023-05-10T07:44:49;15.00;99.90
40848;DHT22;26570;50.962;5.340;2023-05-10T07:48:29;15.10;99.90
40848;DHT22;26570;50.962;5.340;2023-05-10T07:55:28;15.10;99.90
40848;DHT22;26570;50.962;5.340;2023-05-10T07:58:52;15.30;99.90
40848;DHT22;26570;50.962;5.340;2023-05-10T08:02:34;15.40;99.90
40848;DHT22;26570;50.962;5.340;2023-05-10T08:06:10;15.60;99.90
40848;DHT22;26570;50.962;5.340;2023-05-10T08:09:30;15.70;99.90
40848;DHT22;26570;50.962;5.340;2023-05-10T08:12:50;16.00;99.90
40848;DHT22;26570;50.962;5.340;2023-05-10T08:16:29;15.70;99.90
40848;DHT22;26570;50.962;5.340;2023-05-10T08:19:41;15.60;99.90
40848;DHT22;26570;50.962;5.340;2023-05-10T08:23:07;15.70;99.90
40848;DHT22;26570;50.962;5.340;2023-05-10T08:26:37;15.70;99.90
40848;DHT22;26570;50.962;5.340;2023-05-10T08:29:35;15.80;99.90
40848;DHT22;26570;50.962;5.340;2023-05-10T08:33:06;16.10;99.90
40848;DHT22;26570;50.962;5.340;2023-05-10T08:36:33;15.90;99.90
40848;DHT22;26570;50.962;5.340;2023-05-10T08:39:57;15.90;99.90
40848;DHT22;26570;50.962;5.340;2023-05-10T08:43:37;15.40;99.90
40848;DHT22;26570;50.962;5.340;2023-05-10T08:47:04;15.30;99.90
40848;DHT22;26570;50.962;5.340;2023-05-10T08:54:22;15.10;99.90
40848;DHT22;26570;50.962;5.340;2023-05-10T08:57:43;14.90;99.90
40848;DHT22;26570;50.962;5.340;2023-05-10T09:01:00;14.90;99.90
40848;DHT22;26570;50.962;5.340;2023-05-10T09:12:04;14.80;99.90
40848;DHT22;26570;50.962;5.340;2023-05-10T09:15:53;14.90;99.90
40848;DHT22;26570;50.962;5.340;2023-05-10T09:19:30;14.50;99.90
40848;DHT22;26570;50.962;5.340;2023-05-10T09:22:59;14.30;99.90
40848;DHT22;26570;50.962;5.340;2023-05-10T09:26:27;14.70;99.90
40848;DHT22;26570;50.962;5.340;2023-05-10T09:29:53;15.10;99.90
40848;DHT22;26570;50.962;5.340;2023-05-10T09:33:07;15.20;99.90
40848;DHT22;26570;50.962;5.340;2023-05-10T09:37:02;15.30;99.90
40848;DHT22;26570;50.962;5.340;2023-05-10T09:44:17;15.40;99.90
40848;DHT22;26570;50.962;5.340;2023-05-10T09:48:12;15.40;99.90
40848;DHT22;26570;50.962;5.340;2023-05-10T09:52:04;15.80;99.90
40848;DHT22;26570;50.962;5.340;2023-05-10T09:55:42;15.80;99.90
40848;DHT22;26570;50.962;5.340;2023-05-10T09:59:10;15.70;99.90
40848;DHT22;26570;50.962;5.340;2023-05-10T10:06:37;16.10;99.90
40848;DHT22;26570;50.962;5.340;2023-05-10T10:14:16;16.40;99.90
40848;DHT22;26570;50.962;5.340;2023-05-10T10:17:54;16.60;99.90
40848;DHT22;26570;50.962;5.340;2023-05-10T10:21:01;16.40;99.90
40848;DHT22;26570;50.962;5.340;2023-05-10T10:23:49;16.30;99.90
40848;DHT22;26570;50.962;5.340;2023-05-10T10:42:43;16.30;99.90
40848;DHT22;26570;50.962;5.340;2023-05-10T10:50:19;16.50;99.90
40848;DHT22;26570;50.962;5.340;2023-05-10T10:54:24;16.30;99.90
40848;DHT22;26570;50.962;5.340;2023-05-10T10:58:04;16.50;99.90
40848;DHT22;26570;50.962;5.340;2023-05-10T11:01:46;16.70;99.90
40848;DHT22;26570;50.962;5.340;2023-05-10T11:05:46;17.10;99.90
40848;DHT22;26570;50.962;5.340;2023-05-10T11:09:40;16.90;99.90
40848;DHT22;26570;50.962;5.340;2023-05-10T11:13:30;16.90;99.90
40848;DHT22;26570;50.962;5.340;2023-05-10T11:21:03;17.00;99.90
40848;DHT22;26570;50.962;5.340;2023-05-10T11:24:23;16.80;99.90
40848;DHT22;26570;50.962;5.340;2023-05-10T11:27:57;16.80;99.90
40848;DHT22;26570;50.962;5.340;2023-05-10T11:42:02;16.90;99.90
40848;DHT22;26570;50.962;5.340;2023-05-10T11:45:00;17.10;99.90
40848;DHT22;26570;50.962;5.340;2023-05-10T11:48:20;17.50;99.90
40848;DHT22;26570;50.962;5.340;2023-05-10T11:51:48;17.20;99.90
40848;DHT22;26570;50.962;5.340;2023-05-10T11:54:55;17.10;99.90
40848;DHT22;26570;50.962;5.340;2023-05-10T11:58:13;16.60;99.90
40848;DHT22;26570;50.962;5.340;2023-05-10T12:09:20;17.10;99.90
40848;DHT22;26570;50.962;5.340;2023-05-10T12:12:43;17.10;99.90
40848;DHT22;26570;50.962;5.340;2023-05-10T12:20:14;17.20;99.90
40848;DHT22;26570;50.962;5.340;2023-05-10T12:23:56;17.10;99.90
40848;DHT22;26570;50.962;5.340;2023-05-10T12:27:43;17.40;99.90
40848;DHT22;26570;50.962;5.340;2023-05-10T12:35:07;17.30;99.90
40848;DHT22;26570;50.962;5.340;2023-05-10T12:38:38;17.50;99.90
40848;DHT22;26570;50.962;5.340;2023-05-10T12:42:01;17.30;99.90
40848;DHT22;26570;50.962;5.340;2023-05-10T12:45:39;17.20;99.90
40848;DHT22;26570;50.962;5.340;2023-05-10T12:49:21;17.40;99.90
40848;DHT22;26570;50.962;5.340;2023-05-10T12:52:45;16.90;99.90
40848;DHT22;26570;50.962;5.340;2023-05-10T12:55:59;17.10;99.90
40848;DHT22;26570;50.962;5.340;2023-05-10T12:59:17;17.40;99.90
40848;DHT22;26570;50.962;5.340;2023-05-10T13:02:39;17.50;99.90
40848;DHT22;26570;50.962;5.340;2023-05-10T13:05:40;17.80;99.90
40848;DHT22;26570;50.962;5.340;2023-05-10T13:12:25;17.60;99.90
40848;DHT22;26570;50.962;5.340;2023-05-10T13:15:49;17.90;99.90
40848;DHT22;26570;50.962;5.340;2023-05-10T13:19:09;17.50;99.90
40848;DHT22;26570;50.962;5.340;2023-05-10T13:22:44;17.60;99.90
40848;DHT22;26570;50.962;5.340;2023-05-10T13:26:31;17.60;99.90
40848;DHT22;26570;50.962;5.340;2023-05-10T13:29:46;17.80;99.90
40848;DHT22;26570;50.962;5.340;2023-05-10T13:33:26;17.70;99.90
40848;DHT22;26570;50.962;5.340;2023-05-10T13:36:21;17.50;99.90
40848;DHT22;26570;50.962;5.340;2023-05-10T13:39:25;17.80;99.90
40848;DHT22;26570;50.962;5.340;2023-05-10T13:43:06;17.70;99.90
40848;DHT22;26570;50.962;5.340;2023-05-10T13:46:28;17.80;99.90
40848;DHT22;26570;50.962;5.340;2023-05-10T14:00:52;18.60;99.90
40848;DHT22;26570;50.962;5.340;2023-05-10T14:04:06;18.80;99.90
40848;DHT22;26570;50.962;5.340;2023-05-10T14:07:31;18.80;99.90
40848;DHT22;26570;50.962;5.340;2023-05-10T14:14:43;18.70;99.90
40848;DHT22;26570;50.962;5.340;2023-05-10T14:17:49;18.60;99.90
40848;DHT22;26570;50.962;5.340;2023-05-10T14:21:26;18.50;99.90
40848;DHT22;26570;50.962;5.340;2023-05-10T14:24:49;18.60;99.90
40848;DHT22;26570;50.962;5.340;2023-05-10T14:28:33;18.80;99.90
40848;DHT22;26570;50.962;5.340;2023-05-10T14:32:03;19.10;99.90
40848;DHT22;26570;50.962;5.340;2023-05-10T14:35:39;19.20;99.90
40848;DHT22;26570;50.962;5.340;2023-05-10T14:39:22;19.30;99.90
40848;DHT22;26570;50.962;5.340;2023-05-10T14:43:00;18.60;99.90
40848;DHT22;26570;50.962;5.340;2023-05-10T14:46:01;18.70;99.90
40848;DHT22;26570;50.962;5.340;2023-05-10T14:49:06;19.00;99.90
40848;DHT22;26570;50.962;5.340;2023-05-10T14:52:22;19.30;99.90
40848;DHT22;26570;50.962;5.340;2023-05-10T14:55:43;19.30;99.90
40848;DHT22;26570;50.962;5.340;2023-05-10T14:58:46;19.10;99.90
40848;DHT22;26570;50.962;5.340;2023-05-10T15:05:35;19.20;99.90
40848;DHT22;26570;50.962;5.340;2023-05-10T15:08:36;19.00;99.90
40848;DHT22;26570;50.962;5.340;2023-05-10T15:12:01;19.20;99.90
40848;DHT22;26570;50.962;5.340;2023-05-10T15:21:52;19.50;99.90
40848;DHT22;26570;50.962;5.340;2023-05-10T15:25:25;19.50;99.90
40848;DHT22;26570;50.962;5.340;2023-05-10T15:29:09;19.10;99.90
40848;DHT22;26570;50.962;5.340;2023-05-10T15:32:10;19.30;99.90
40848;DHT22;26570;50.962;5.340;2023-05-10T15:35:23;19.40;99.90
40848;DHT22;26570;50.962;5.340;2023-05-10T15:39:03;19.70;99.90
40848;DHT22;26570;50.962;5.340;2023-05-10T15:42:06;19.40;99.90
40848;DHT22;26570;50.962;5.340;2023-05-10T15:45:21;19.20;99.90
40848;DHT22;26570;50.962;5.340;2023-05-10T15:48:45;19.50;99.90
40848;DHT22;26570;50.962;5.340;2023-05-10T15:52:09;19.60;99.90
40848;DHT22;26570;50.962;5.340;2023-05-10T15:55:50;19.50;99.90
40848;DHT22;26570;50.962;5.340;2023-05-10T15:59:04;19.60;99.90
40848;DHT22;26570;50.962;5.340;2023-05-10T16:05:51;19.40;99.90
40848;DHT22;26570;50.962;5.340;2023-05-10T16:09:30;19.30;99.90
40848;DHT22;26570;50.962;5.340;2023-05-10T16:12:41;19.00;99.90
40848;DHT22;26570;50.962;5.340;2023-05-10T16:16:13;19.00;99.90
40848;DHT22;26570;50.962;5.340;2023-05-10T16:19:16;19.00;99.90
40848;DHT22;26570;50.962;5.340;2023-05-10T16:23:03;19.00;99.90
40848;DHT22;26570;50.962;5.340;2023-05-10T16:26:23;19.10;99.90
40848;DHT22;26570;50.962;5.340;2023-05-10T16:29:26;19.40;99.90
40848;DHT22;26570;50.962;5.340;2023-05-10T16:32:36;19.30;99.90
40848;DHT22;26570;50.962;5.340;2023-05-10T16:35:50;19.40;99.90
40848;DHT22;26570;50.962;5.340;2023-05-10T16:39:14;19.50;99.90
40848;DHT22;26570;50.962;5.340;2023-05-10T16:42:43;19.30;99.90
40848;DHT22;26570;50.962;5.340;2023-05-10T16:45:55;19.20;99.90
40848;DHT22;26570;50.962;5.340;2023-05-10T16:48:53;19.10;99.90
40848;DHT22;26570;50.962;5.340;2023-05-10T16:51:44;19.10;99.90
40848;DHT22;26570;50.962;5.340;2023-05-10T16:55:43;19.10;99.90
40848;DHT22;26570;50.962;5.340;2023-05-10T16:58:45;18.90;99.90
40848;DHT22;26570;50.962;5.340;2023-05-10T17:01:44;18.90;99.90
40848;DHT22;26570;50.962;5.340;2023-05-10T17:04:48;18.70;99.90
40848;DHT22;26570;50.962;5.340;2023-05-10T17:07:39;18.70;99.90
40848;DHT22;26570;50.962;5.340;2023-05-10T17:10:32;18.50;99.90
40848;DHT22;26570;50.962;5.340;2023-05-10T17:13:49;18.60;99.90
40848;DHT22;26570;50.962;5.340;2023-05-10T17:16:41;18.40;99.90
40848;DHT22;26570;50.962;5.340;2023-05-10T17:23:30;17.50;99.90
40848;DHT22;26570;50.962;5.340;2023-05-10T17:26:40;17.30;99.90
40848;DHT22;26570;50.962;5.340;2023-05-10T17:29:42;16.80;99.90
40848;DHT22;26570;50.962;5.340;2023-05-10T17:32:32;16.40;99.90
40848;DHT22;26570;50.962;5.340;2023-05-10T17:35:24;16.10;99.90
40848;DHT22;26570;50.962;5.340;2023-05-10T17:38:35;16.00;99.90
40848;DHT22;26570;50.962;5.340;2023-05-10T17:45:31;15.70;99.90
40848;DHT22;26570;50.962;5.340;2023-05-10T17:49:16;15.70;99.90
40848;DHT22;26570;50.962;5.340;2023-05-10T17:52:24;15.40;99.90
40848;DHT22;26570;50.962;5.340;2023-05-10T17:55:57;15.30;99.90
40848;DHT22;26570;50.962;5.340;2023-05-10T17:59:33;15.30;99.90
40848;DHT22;26570;50.962;5.340;2023-05-10T18:02:33;15.40;99.90
40848;DHT22;26570;50.962;5.340;2023-05-10T18:05:24;15.30;99.90
40848;DHT22;26570;50.962;5.340;2023-05-10T18:08:14;15.20;99.90
40848;DHT22;26570;50.962;5.340;2023-05-10T18:11:33;15.10;99.90
40848;DHT22;26570;50.962;5.340;2023-05-10T18:18:32;15.30;99.90
40848;DHT22;26570;50.962;5.340;2023-05-10T18:21:49;15.30;99.90
40848;DHT22;26570;50.962;5.340;2023-05-10T18:24:40;15.20;99.90
40848;DHT22;26570;50.962;5.340;2023-05-10T18:27:52;15.20;99.90
40848;DHT22;26570;50.962;5.340;2023-05-10T18:31:06;15.20;99.90
40848;DHT22;26570;50.962;5.340;2023-05-10T18:34:37;15.30;99.90
40848;DHT22;26570;50.962;5.340;2023-05-10T18:37:38;15.50;99.90
40848;DHT22;26570;50.962;5.340;2023-05-10T18:40:29;15.50;99.90
40848;DHT22;26570;50.962;5.340;2023-05-10T18:43:59;15.30;99.90
40848;DHT22;26570;50.962;5.340;2023-05-10T18:47:15;15.40;99.90
40848;DHT22;26570;50.962;5.340;2023-05-10T18:50:54;15.50;99.90
40848;DHT22;26570;50.962;5.340;2023-05-10T18:54:05;15.30;99.90
40848;DHT22;26570;50.962;5.340;2023-05-10T18:57:15;15.30;99.90
40848;DHT22;26570;50.962;5.340;2023-05-10T19:00:15;15.40;99.90
40848;DHT22;26570;50.962;5.340;2023-05-10T19:03:19;15.30;99.90
40848;DHT22;26570;50.962;5.340;2023-05-10T19:06:17;15.30;99.90
40848;DHT22;26570;50.962;5.340;2023-05-10T19:09:37;15.40;99.90
40848;DHT22;26570;50.962;5.340;2023-05-10T19:12:53;15.20;99.90
40848;DHT22;26570;50.962;5.340;2023-05-10T19:16:26;15.30;99.90
40848;DHT22;26570;50.962;5.340;2023-05-10T19:19:37;15.20;99.90
40848;DHT22;26570;50.962;5.340;2023-05-10T19:22:32;15.20;99.90
40848;DHT22;26570;50.962;5.340;2023-05-10T19:25:48;15.00;99.90
40848;DHT22;26570;50.962;5.340;2023-05-10T19:28:46;15.10;99.90
40848;DHT22;26570;50.962;5.340;2023-05-10T19:31:41;15.00;99.90
40848;DHT22;26570;50.962;5.340;2023-05-10T19:34:58;15.00;99.90
40848;DHT22;26570;50.962;5.340;2023-05-10T19:38:06;15.00;99.90
40848;DHT22;26570;50.962;5.340;2023-05-10T19:45:41;15.00;99.90
40848;DHT22;26570;50.962;5.340;2023-05-10T19:48:39;14.90;99.90
40848;DHT22;26570;50.962;5.340;2023-05-10T19:51:57;14.80;99.90
40848;DHT22;26570;50.962;5.340;2023-05-10T19:55:37;14.80;99.90
40848;DHT22;26570;50.962;5.340;2023-05-10T19:58:54;14.70;99.90
40848;DHT22;26570;50.962;5.340;2023-05-10T20:02:24;14.80;99.90
40848;DHT22;26570;50.962;5.340;2023-05-10T20:05:24;14.70;99.90
40848;DHT22;26570;50.962;5.340;2023-05-10T20:09:05;14.70;99.90
40848;DHT22;26570;50.962;5.340;2023-05-10T20:12:26;14.80;99.90
40848;DHT22;26570;50.962;5.340;2023-05-10T20:16:13;14.80;99.90
40848;DHT22;26570;50.962;5.340;2023-05-10T20:19:14;14.70;99.90
40848;DHT22;26570;50.962;5.340;2023-05-10T20:37:25;14.50;99.90
40848;DHT22;26570;50.962;5.340;2023-05-10T20:40:18;14.40;99.90
40848;DHT22;26570;50.962;5.340;2023-05-10T20:43:35;14.60;99.90
40848;DHT22;26570;50.962;5.340;2023-05-10T20:46:48;14.50;99.90
40848;DHT22;26570;50.962;5.340;2023-05-10T20:50:13;14.40;99.90
40848;DHT22;26570;50.962;5.340;2023-05-10T20:53:41;14.60;99.90
40848;DHT22;26570;50.962;5.340;2023-05-10T20:56:38;14.50;99.90
40848;DHT22;26570;50.962;5.340;2023-05-10T20:59:45;14.50;99.90
40848;DHT22;26570;50.962;5.340;2023-05-10T21:06:19;14.40;99.90
40848;DHT22;26570;50.962;5.340;2023-05-10T21:28:51;14.20;99.90
40848;DHT22;26570;50.962;5.340;2023-05-10T22:09:08;14.50;99.90
40848;DHT22;26570;50.962;5.340;2023-05-10T22:12:41;14.40;99.90
40848;DHT22;26570;50.962;5.340;2023-05-10T22:23:32;14.60;99.90
40848;DHT22;26570;50.962;5.340;2023-05-10T22:30:14;14.60;99.90
40848;DHT22;26570;50.962;5.340;2023-05-10T22:36:45;14.40;99.90
40848;DHT22;26570;50.962;5.340;2023-05-10T22:40:04;14.40;99.90
40848;DHT22;26570;50.962;5.340;2023-05-10T22:43:35;14.30;99.90
40848;DHT22;26570;50.962;5.340;2023-05-10T22:53:03;14.40;99.90
40848;DHT22;26570;50.962;5.340;2023-05-10T22:56:47;14.30;99.90
